Time;durP1;ratioP1;P1;durP2;ratioP2;P2;SDS_P1;SDS_P2;PMS_P1;PMS_P2;Temp;Humidity;BMP_temperature;BMP_pressure;BME280_temperature;BME280_humidity;BME280_pressure;Samples;Min_cycle;Max_cycle;Signal;HPM_P1;HPM_P2
2022/10/11 00:01:41;;;;;;;5.90;5.30;;;;;;;21.67;45.69;95404.97;5038883;28;20025;-77
2022/10/11 00:04:07;;;;;;;6.25;5.60;;;;;;;21.69;45.94;95410.69;5025584;28;20384;-79
2022/10/11 00:06:32;;;;;;;6.55;5.50;;;;;;;22.49;45.83;95544.75;5027696;28;20033;-78
2022/10/11 00:08:58;;;;;;;6.22;5.38;;;;;;;22.12;45.57;95478.81;5043215;28;20091;-79
2022/10/11 00:11:23;;;;;;;6.50;5.78;;;;;;;22.24;46.04;95501.38;5043130;28;20405;-76
2022/10/11 00:13:49;;;;;;;6.82;5.63;;;;;;;22.60;45.79;95550.22;5026400;28;20037;-70
2022/10/11 00:16:14;;;;;;;6.38;5.78;;;;;;;22.50;45.79;95543.53;5037582;28;20040;-72
2022/10/11 00:18:40;;;;;;;6.32;5.47;;;;;;;21.98;46.07;95474.28;5025585;28;20045;-77
2022/10/11 00:21:10;;;;;;;5.85;5.25;;;;;;;22.45;46.12;95530.63;5031630;28;20049;-79
2022/10/11 00:23:36;;;;;;;6.40;5.65;;;;;;;22.46;45.92;95546.47;5031036;28;20067;-73
2022/10/11 00:26:03;;;;;;;7.25;6.13;;;;;;;21.96;45.69;95452.28;5034978;28;20037;-79
2022/10/11 00:28:28;;;;;;;7.75;5.90;;;;;;;22.17;46.16;95483.53;5042127;28;20054;-76
2022/10/11 00:30:54;;;;;;;5.53;5.00;;;;;;;21.92;45.84;95455.75;5037556;28;20868;-78
2022/10/11 00:33:19;;;;;;;6.07;5.40;;;;;;;22.52;45.98;95538.31;5040843;28;20098;-78
2022/10/11 00:35:45;;;;;;;6.93;5.55;;;;;;;22.31;45.76;95517.97;5041645;28;20022;-77
2022/10/11 00:38:10;;;;;;;8.13;5.90;;;;;;;22.67;46.36;95571.53;5036055;28;20775;-77
2022/10/11 00:40:37;;;;;;;7.05;5.40;;;;;;;21.99;45.95;95462.19;5044418;28;20098;-77
2022/10/11 00:43:02;;;;;;;5.82;5.13;;;;;;;22.56;46.17;95550.47;5048004;28;20071;-72
2022/10/11 00:45:31;;;;;;;6.80;5.60;;;;;;;22.67;45.91;95552.47;5031515;28;20478;-77
2022/10/11 00:48:20;;;;;;;6.70;5.60;;;;;;;22.58;46.18;95547.97;5034087;28;20069;-76
2022/10/11 00:50:46;;;;;;;6.53;5.85;;;;;;;21.95;46.22;95447.34;5028428;28;20044;-78
2022/10/11 00:53:11;;;;;;;6.70;5.65;;;;;;;21.59;46.33;95393.09;5039335;28;20091;-78
2022/10/11 00:55:39;;;;;;;6.82;6.00;;;;;;;22.63;46.28;95555.44;5045292;28;20069;-78
2022/10/11 00:58:05;;;;;;;7.65;5.93;;;;;;;22.40;46.04;95525.91;5034277;28;20135;-74
2022/10/11 01:00:30;;;;;;;6.30;5.55;;;;;;;22.61;46.14;95557.88;5051540;28;20195;-78
2022/10/11 01:02:56;;;;;;;7.30;6.43;;;;;;;22.44;46.22;95548.19;5037851;28;20045;-78
2022/10/11 01:05:21;;;;;;;7.35;6.28;;;;;;;22.36;46.12;95516.50;5039385;28;20040;-79
2022/10/11 01:07:46;;;;;;;7.45;6.10;;;;;;;22.03;46.37;95476.31;5056700;28;20048;-79
2022/10/11 01:10:12;;;;;;;6.63;5.75;;;;;;;22.62;46.11;95547.75;5033379;28;20080;-79
2022/10/11 01:12:44;;;;;;;7.00;6.20;;;;;;;22.09;46.18;95479.78;5039785;28;20148;-76
2022/10/11 01:15:17;;;;;;;6.75;6.03;;;;;;;22.62;46.03;95555.94;5057280;28;20047;-77
2022/10/11 01:17:51;;;;;;;7.78;6.00;;;;;;;22.60;46.33;95550.22;5036829;28;20025;-75
2022/10/11 01:20:29;;;;;;;7.25;5.95;;;;;;;22.61;46.41;95551.72;5033595;28;20009;-77
2022/10/11 01:23:20;;;;;;;7.38;6.13;;;;;;;22.59;46.38;95554.19;5071601;28;20056;-79
2022/10/11 01:26:13;;;;;;;8.68;6.50;;;;;;;22.59;46.45;95551.47;5082957;28;20057;-78
2022/10/11 01:29:08;;;;;;;6.78;5.93;;;;;;;22.52;46.40;95538.31;5052137;28;20103;-78
2022/10/11 01:31:45;;;;;;;7.07;5.95;;;;;;;22.58;46.19;95533.63;5047622;28;20063;-77
2022/10/11 01:34:39;;;;;;;7.28;6.28;;;;;;;21.87;46.28;95434.69;5059135;28;20083;-77
2022/10/11 01:37:09;;;;;;;8.38;6.30;;;;;;;21.72;46.44;95406.97;5038015;28;20045;-78
2022/10/11 01:39:35;;;;;;;;;;;;;;;22.58;46.13;95547.25;5043630;28;20063;-78
2022/10/11 01:42:02;;;;;;;8.23;6.53;;;;;;;21.86;46.44;95433.22;5032729;28;19927;-66
2022/10/11 01:44:28;;;;;;;6.97;6.28;;;;;;;22.52;46.49;95530.16;5035337;28;20052;-75
2022/10/11 01:46:53;;;;;;;6.88;6.18;;;;;;;22.52;46.12;95543.75;5033456;28;20475;-71
2022/10/11 01:49:19;;;;;;;7.85;6.43;;;;;;;22.02;46.27;95463.94;5045916;28;20036;-72
2022/10/11 01:51:49;;;;;;;8.35;6.63;;;;;;;22.43;46.28;95514.03;5035875;28;20527;-65
2022/10/11 01:54:24;;;;;;;7.70;6.50;;;;;;;22.56;46.47;95536.13;5048303;28;20326;-67
2022/10/11 01:57:01;;;;;;;7.15;6.35;;;;;;;22.55;46.38;95537.34;5036588;28;20037;-73
2022/10/11 01:59:46;;;;;;;6.95;6.22;;;;;;;22.54;46.21;95535.84;5043738;28;21029;-72
2022/10/11 02:02:19;;;;;;;7.50;6.60;;;;;;;22.10;46.14;95475.09;5045755;28;20068;-72
2022/10/11 02:04:53;;;;;;;7.55;6.75;;;;;;;21.80;46.52;95432.47;5040425;28;20169;-73
2022/10/11 02:07:25;;;;;;;7.95;7.13;;;;;;;22.49;46.46;95566.50;5049171;28;20106;-69
2022/10/11 02:10:09;;;;;;;7.75;6.57;;;;;;;22.16;46.51;95479.31;5029620;28;20040;-78
2022/10/11 02:12:37;;;;;;;7.70;6.85;;;;;;;22.13;46.25;95480.28;5037072;28;20068;-72
2022/10/11 02:15:03;;;;;;;8.57;7.00;;;;;;;22.43;46.58;95528.41;5045681;28;20128;-68
2022/10/11 02:17:31;;;;;;;9.68;7.03;;;;;;;21.54;46.25;95388.38;5052964;28;20025;-69
2022/10/11 02:19:56;;;;;;;7.30;6.60;;;;;;;22.17;46.27;95485.50;5041087;28;20064;-74
2022/10/11 02:22:25;;;;;;;7.78;6.93;;;;;;;22.52;46.29;95533.59;5026823;28;20049;-70
2022/10/11 02:24:52;;;;;;;8.13;6.88;;;;;;;22.43;46.44;95519.50;5015137;28;20046;-78
2022/10/11 02:27:19;;;;;;;7.57;6.53;;;;;;;22.22;46.53;95492.97;5044843;28;20557;-75
2022/10/11 02:29:44;;;;;;;7.82;6.63;;;;;;;22.31;46.49;95501.63;5032042;28;20083;-78
2022/10/11 02:32:10;;;;;;;7.55;6.63;;;;;;;22.47;46.87;95541.78;5044656;28;20029;-77
2022/10/11 02:34:47;;;;;;;7.90;7.10;;;;;;;21.91;46.52;95446.09;5035270;28;20074;-66
2022/10/11 02:37:31;;;;;;;8.02;6.93;;;;;;;22.51;46.82;95520.50;5057536;28;20116;-77
2022/10/11 02:40:00;;;;;;;7.28;6.47;;;;;;;22.52;46.53;95519.28;5033122;28;20107;-67
2022/10/11 02:42:29;;;;;;;8.18;7.38;;;;;;;22.52;46.74;95516.53;5057293;28;20102;-77
2022/10/11 02:45:16;;;;;;;7.90;6.80;;;;;;;22.05;46.63;95460.22;5037577;28;20060;-66
2022/10/11 02:47:41;;;;;;;9.23;7.63;;;;;;;22.19;46.54;95485.75;5024701;28;20036;-75
2022/10/11 02:50:07;;;;;;;8.32;6.90;;;;;;;22.50;47.06;95519.03;5038490;28;20780;-77
2022/10/11 02:52:32;;;;;;;7.45;6.65;;;;;;;22.50;46.57;95529.91;5035525;28;20508;-78
2022/10/11 02:54:58;;;;;;;7.68;6.90;;;;;;;21.52;46.59;95372.56;5036008;28;20087;-78
2022/10/11 02:57:23;;;;;;;7.50;6.80;;;;;;;22.31;46.10;95490.75;5050942;28;20044;-74
2022/10/11 02:59:49;;;;;;;8.38;7.47;;;;;;;22.47;46.76;95517.28;5040828;28;20118;-79
2022/10/11 03:02:14;;;;;;;8.20;7.22;;;;;;;20.70;46.73;95308.91;5039822;28;20158;-79
2022/10/11 03:04:39;;;;;;;7.55;6.70;;;;;;;22.48;46.70;95518.75;5028948;28;20037;-76
2022/10/11 03:07:05;;;;;;;8.07;7.22;;;;;;;21.36;46.88;95348.03;5028319;28;20060;-73
2022/10/11 03:09:30;;;;;;;7.90;7.07;;;;;;;22.37;46.87;95494.25;5026311;28;20654;-76
2022/10/11 03:11:56;;;;;;;7.88;7.00;;;;;;;21.48;46.78;95360.44;5025757;28;20614;-69
2022/10/11 03:14:22;;;;;;;8.68;7.47;;;;;;;21.83;46.92;95417.91;5036460;28;20425;-80
2022/10/11 03:16:48;;;;;;;7.68;6.93;;;;;;;21.48;46.96;95365.88;5025739;28;20037;-72
2022/10/11 03:19:13;;;;;;;8.93;7.43;;;;;;;21.93;46.99;95431.53;5026202;28;20034;-69
2022/10/11 03:21:39;;;;;;;8.52;7.68;;;;;;;22.46;46.95;95523.94;5025431;28;20127;-78
2022/10/11 03:24:04;;;;;;;8.00;7.20;;;;;;;22.19;46.92;95483.75;5032683;28;20049;-75
2022/10/11 03:26:30;;;;;;;7.65;6.82;;;;;;;22.35;46.60;95496.72;5026407;28;20127;-73
2022/10/11 03:28:55;;;;;;;8.30;7.28;;;;;;;21.84;46.77;95419.38;5031685;28;20048;-79
2022/10/11 03:31:22;;;;;;;8.40;7.50;;;;;;;22.00;46.86;95436.50;5025972;28;20103;-78
2022/10/11 03:33:48;;;;;;;9.15;7.70;;;;;;;21.66;46.86;95387.19;5031655;28;20048;-80
2022/10/11 03:36:13;;;;;;;9.52;7.78;;;;;;;22.44;46.94;95505.38;5025358;28;20029;-76
2022/10/11 03:38:38;;;;;;;8.75;7.82;;;;;;;22.15;46.76;95477.84;5025801;28;20022;-72
2022/10/11 03:41:04;;;;;;;8.35;7.40;;;;;;;21.70;46.71;95395.84;5035816;28;20496;-77
2022/10/11 03:43:30;;;;;;;8.65;7.68;;;;;;;21.79;47.00;95414.66;5030672;28;20040;-70
2022/10/11 03:45:55;;;;;;;8.80;7.82;;;;;;;22.44;46.83;95510.09;5049766;28;20037;-74
2022/10/11 03:48:21;;;;;;;8.45;7.55;;;;;;;22.36;46.67;95486.56;5038786;28;20040;-76
2022/10/11 03:50:47;;;;;;;8.38;7.53;;;;;;;22.44;46.99;95493.78;5025788;28;20014;-75
2022/10/11 03:53:12;;;;;;;8.32;7.53;;;;;;;22.43;47.14;95508.59;5046262;28;20032;-78
2022/10/11 03:55:39;;;;;;;8.82;7.93;;;;;;;22.44;47.05;95493.78;5042746;28;20037;-78
2022/10/11 03:58:04;;;;;;;9.20;7.85;;;;;;;22.43;46.99;95487.59;5044217;28;20037;-78
2022/10/11 04:00:30;;;;;;;8.10;7.30;;;;;;;22.21;47.26;95464.25;5048656;28;20055;-74
2022/10/11 04:02:56;;;;;;;8.52;7.63;;;;;;;22.06;47.02;95445.41;5050004;28;20060;-75
2022/10/11 04:05:21;;;;;;;8.82;7.65;;;;;;;22.43;46.79;95500.44;5042775;28;20782;-78
2022/10/11 04:07:47;;;;;;;8.57;7.68;;;;;;;22.18;46.84;95471.41;5029244;28;20047;-78
2022/10/11 04:10:13;;;;;;;9.50;7.97;;;;;;;22.43;47.35;95508.59;5030202;28;20041;-77
2022/10/11 04:12:38;;;;;;;8.55;7.65;;;;;;;22.32;47.23;95489.53;5043302;28;20049;-78
2022/10/11 04:15:05;;;;;;;8.27;7.40;;;;;;;22.43;47.10;95508.59;5042895;28;20040;-76
2022/10/11 04:17:30;;;;;;;8.90;8.00;;;;;;;21.90;46.80;95422.84;5027864;28;20492;-61
2022/10/11 04:19:56;;;;;;;9.15;8.00;;;;;;;21.49;47.26;95356.47;5029667;28;20060;-67
2022/10/11 04:22:21;;;;;;;9.40;8.40;;;;;;;22.06;46.99;95442.69;5036883;28;20148;-68
2022/10/11 04:24:46;;;;;;;8.70;7.70;;;;;;;21.76;47.16;95402.03;5039871;28;20040;-64
2022/10/11 04:27:12;;;;;;;8.93;7.78;;;;;;;22.34;47.49;95478.91;5037963;28;20048;-70
2022/10/11 04:29:37;;;;;;;8.90;8.00;;;;;;;22.03;47.35;95424.63;5031278;28;20033;-72
2022/10/11 04:32:03;;;;;;;10.05;7.93;;;;;;;22.49;47.38;95493.03;5030957;28;20021;-72
2022/10/11 04:34:28;;;;;;;9.38;7.70;;;;;;;22.23;47.28;95470.72;5026179;28;20038;-76
2022/10/11 04:36:54;;;;;;;8.65;7.75;;;;;;;22.00;47.17;95422.13;5052501;28;20464;-76
2022/10/11 04:39:19;;;;;;;8.93;8.02;;;;;;;21.55;47.04;95338.22;5040679;28;20439;-73
2022/10/11 04:41:45;;;;;;;8.82;7.93;;;;;;;22.64;47.13;95512.63;5034072;28;20219;-77
2022/10/11 04:44:10;;;;;;;10.77;7.97;;;;;;;22.53;46.84;95485.38;5042061;28;20032;-71
2022/10/11 04:46:35;;;;;;;10.10;8.60;;;;;;;22.61;47.09;95480.94;5025985;28;20045;-74
2022/10/11 04:49:01;;;;;;;9.73;8.30;;;;;;;22.27;47.54;95430.41;5058834;28;20508;-73
2022/10/11 04:51:27;;;;;;;8.55;7.65;;;;;;;22.77;47.10;95512.91;5025626;28;20599;-72
2022/10/11 04:53:53;;;;;;;8.57;7.65;;;;;;;22.18;47.17;95406.13;5035677;28;20029;-80
2022/10/11 04:56:18;;;;;;;8.85;7.95;;;;;;;22.58;47.12;95457.41;5059493;28;20326;-80
2022/10/11 04:58:44;;;;;;;9.43;7.95;;;;;;;21.80;47.09;95335.34;5039653;28;20140;-69
2022/10/11 05:01:10;;;;;;;9.57;7.60;;;;;;;21.80;47.39;95399.84;5047797;28;20052;-70
2022/10/11 05:03:35;;;;;;;9.77;8.30;;;;;;;22.34;47.08;95402.72;5031752;28;21565;-73
2022/10/11 05:06:01;;;;;;;9.00;8.10;;;;;;;22.93;47.03;95497.34;5032750;28;20048;-70
2022/10/11 05:08:26;;;;;;;9.10;7.85;;;;;;;23.08;46.50;95497.84;5027416;28;20021;-75
2022/10/11 05:11:02;;;;;;;9.07;7.80;;;;;;;22.42;46.58;95381.97;5047148;28;20028;-77
2022/10/11 05:13:29;;;;;;;9.07;8.13;;;;;;;22.50;46.40;95388.38;5035713;28;20037;-68
2022/10/11 05:15:54;;;;;;;10.55;8.77;;;;;;;22.82;46.79;95433.19;5032237;28;20040;-66
2022/10/11 05:18:20;;;;;;;8.82;7.88;;;;;;;22.95;46.56;95481.25;5049923;28;20741;-67
2022/10/11 05:20:45;;;;;;;9.50;8.00;;;;;;;22.39;46.65;95366.63;5061377;28;20033;-69
2022/10/11 05:23:11;;;;;;;9.15;8.00;;;;;;;23.21;46.75;95484.44;5044381;28;20027;-70
2022/10/11 05:25:36;;;;;;;9.95;8.38;;;;;;;23.37;47.00;95513.69;5038447;28;20499;-68
2022/10/11 05:28:02;;;;;;;9.45;7.95;;;;;;;23.41;47.10;95514.19;5040297;28;20721;-70
2022/10/11 05:30:27;;;;;;;9.27;8.10;;;;;;;23.66;48.28;95524.06;5031699;28;20131;-65
2022/10/11 05:32:53;;;;;;;9.77;7.60;;;;;;;22.95;47.97;95413.16;5031502;28;20029;-64
2022/10/11 05:35:18;;;;;;;11.02;8.23;;;;;;;23.67;49.09;95520.13;5031723;28;20040;-65
2022/10/11 05:37:44;;;;;;;10.48;8.20;;;;;;;22.66;48.83;95374.78;5034094;28;20037;-65
2022/10/11 05:40:10;;;;;;;10.35;8.32;;;;;;;23.63;49.52;95525.81;5026151;28;20034;-64
2022/10/11 05:42:35;;;;;;;9.18;8.02;;;;;;;23.09;48.74;95455.75;5025751;28;20034;-66
2022/10/11 05:45:01;;;;;;;10.63;8.25;;;;;;;23.60;48.97;95531.50;5035957;28;20037;-62
2022/10/11 05:47:27;;;;;;;8.75;7.80;;;;;;;23.37;48.22;95486.44;5042836;28;20033;-66
2022/10/11 05:49:52;;;;;;;9.57;7.53;;;;;;;23.64;47.95;95510.19;5030756;28;20042;-67
2022/10/11 05:52:20;;;;;;;11.48;8.10;;;;;;;24.09;47.14;95534.13;5032451;28;20420;-69
2022/10/11 05:54:46;;;;;;;12.45;7.80;;;;;;;24.18;47.15;95520.94;5032757;28;20770;-66
2022/10/11 05:57:11;;;;;;;10.68;8.10;;;;;;;24.02;47.92;95508.13;5037170;28;20140;-66
2022/10/11 05:59:37;;;;;;;9.07;7.65;;;;;;;23.40;47.26;95458.19;5028843;28;20037;-66
2022/10/11 06:02:02;;;;;;;9.38;7.80;;;;;;;22.88;47.87;95390.34;5035068;28;20033;-64
2022/10/11 06:04:28;;;;;;;9.18;7.50;;;;;;;23.54;47.35;95429.88;5034942;28;20440;-65
2022/10/11 06:06:53;;;;;;;10.63;8.02;;;;;;;24.02;47.23;95532.69;5030073;28;20049;-68
2022/10/11 06:09:19;;;;;;;11.05;8.00;;;;;;;24.16;47.25;95489.97;5032366;28;20508;-66
2022/10/11 06:11:45;;;;;;;14.10;8.63;;;;;;;23.44;46.71;95425.97;5027052;28;20040;-68
2022/10/11 06:14:10;;;;;;;11.43;7.78;;;;;;;23.34;47.01;95421.28;5039114;28;20029;-68
2022/10/11 06:16:36;;;;;;;12.75;9.10;;;;;;;23.86;47.18;95506.19;5026153;28;20045;-68
2022/10/11 06:19:01;;;;;;;10.40;7.90;;;;;;;23.28;47.03;95424.00;5024175;28;20592;-68
2022/10/11 06:21:26;;;;;;;10.75;8.75;;;;;;;21.21;46.27;95130.19;5036368;28;20146;-65
2022/10/11 06:23:52;;;;;;;11.45;8.68;;;;;;;23.64;46.84;95466.56;5035048;28;20036;-67
2022/10/11 06:26:18;;;;;;;11.70;8.57;;;;;;;23.27;47.02;95425.25;5022226;28;20029;-66
2022/10/11 06:28:43;;;;;;;9.93;8.48;;;;;;;23.15;46.77;95398.50;5023840;28;20567;-67
2022/10/11 06:31:09;;;;;;;10.77;8.35;;;;;;;22.82;46.68;95370.56;5023136;28;20087;-66
2022/10/11 06:33:34;;;;;;;10.35;8.10;;;;;;;23.72;47.09;95513.91;5024882;28;20162;-66
2022/10/11 06:36:02;;;;;;;9.98;7.93;;;;;;;23.56;47.59;95492.84;5024881;28;20037;-66
2022/10/11 06:38:27;;;;;;;11.63;8.38;;;;;;;23.00;47.33;95415.16;5044762;28;20017;-66
2022/10/11 06:40:53;;;;;;;10.27;7.95;;;;;;;23.25;47.31;95468.59;5038822;28;20052;-68
2022/10/11 06:43:18;;;;;;;12.05;8.70;;;;;;;23.21;47.64;95465.38;5037588;28;20045;-66
2022/10/11 06:45:43;;;;;;;10.63;8.43;;;;;;;22.93;47.66;95431.97;5037921;28;20076;-67
2022/10/11 06:48:09;;;;;;;10.45;8.82;;;;;;;23.47;48.06;95531.28;5045559;28;20036;-70
2022/10/11 06:50:36;;;;;;;9.77;8.48;;;;;;;22.52;48.04;95394.06;5045233;28;20030;-66
2022/10/11 06:53:02;;;;;;;11.98;8.57;;;;;;;23.14;47.87;95512.22;5040994;28;20060;-69
2022/10/11 06:55:27;;;;;;;12.30;8.65;;;;;;;23.48;48.26;95554.56;5037251;28;20458;-65
2022/10/11 06:57:52;;;;;;;11.52;8.60;;;;;;;23.19;47.37;95530.53;5028991;28;20037;-72
2022/10/11 07:00:18;;;;;;;10.55;8.18;;;;;;;23.42;47.71;95560.03;5042119;28;20364;-67
2022/10/11 07:02:43;;;;;;;10.75;8.60;;;;;;;23.40;47.71;95556.28;5042647;28;20029;-66
2022/10/11 07:05:09;;;;;;;12.90;9.07;;;;;;;22.42;47.40;95409.19;5025830;28;20044;-67
2022/10/11 07:07:34;;;;;;;11.07;9.00;;;;;;;23.37;47.31;95562.75;5025172;28;20048;-66
2022/10/11 07:10:00;;;;;;;11.38;8.52;;;;;;;22.98;47.21;95510.22;5023192;28;20041;-70
2022/10/11 07:12:25;;;;;;;12.30;8.98;;;;;;;22.63;47.53;95440.34;5026887;28;20046;-67
2022/10/11 07:14:51;;;;;;;11.82;8.90;;;;;;;23.27;47.73;95528.78;5030534;28;20022;-69
2022/10/11 07:17:16;;;;;;;12.80;8.90;;;;;;;22.29;47.33;95381.69;5026017;28;20033;-68
2022/10/11 07:19:42;;;;;;;13.20;9.45;;;;;;;23.32;47.18;95513.66;5038520;28;20060;-69
2022/10/11 07:22:07;;;;;;;13.27;9.18;;;;;;;22.72;47.39;95449.03;5042981;28;20033;-69
2022/10/11 07:24:32;;;;;;;12.60;9.27;;;;;;;23.02;47.12;95505.28;5026189;28;20056;-70
2022/10/11 07:26:58;;;;;;;14.70;10.20;;;;;;;23.12;47.03;95531.03;5025158;28;20138;-68
2022/10/11 07:29:23;;;;;;;13.35;10.15;;;;;;;22.58;47.27;95454.69;5038735;28;20025;-70
2022/10/11 07:31:49;;;;;;;14.60;9.70;;;;;;;22.37;46.90;95422.75;5025126;28;20102;-72
2022/10/11 07:34:14;;;;;;;13.98;9.52;;;;;;;22.52;46.79;95440.34;5023397;28;20967;-73
2022/10/11 07:36:40;;;;;;;14.68;10.35;;;;;;;23.25;47.18;95558.53;5038253;28;20533;-73
2022/10/11 07:39:06;;;;;;;14.00;10.00;;;;;;;23.13;47.22;95542.66;5023795;28;20479;-70
2022/10/11 07:41:32;;;;;;;15.02;10.07;;;;;;;22.62;47.30;95463.38;5025121;28;20108;-69
2022/10/11 07:43:57;;;;;;;13.23;9.85;;;;;;;23.21;47.46;95563.47;5024729;28;20060;-70
2022/10/11 07:46:22;;;;;;;13.57;9.75;;;;;;;22.57;47.12;95458.66;5023815;28;20030;-69
2022/10/11 07:48:51;;;;;;;13.18;9.43;;;;;;;22.53;47.16;95448.00;5025080;28;20332;-65
2022/10/11 07:51:18;;;;;;;13.75;9.80;;;;;;;22.47;47.30;95443.81;5029199;28;20661;-75
2022/10/11 07:53:48;;;;;;;13.57;9.90;;;;;;;22.22;46.89;95417.53;5027975;28;20033;-76
2022/10/11 07:56:22;;;;;;;15.73;10.13;;;;;;;22.66;47.19;95482.91;5025533;28;20515;-70
2022/10/11 07:58:54;;;;;;;14.90;10.57;;;;;;;22.58;47.07;95465.59;5024718;28;20744;-70
2022/10/11 08:01:20;;;;;;;14.93;10.60;;;;;;;22.38;47.37;95435.88;5037110;28;20060;-72
2022/10/11 08:03:45;;;;;;;15.27;10.85;;;;;;;23.05;47.23;95541.69;5048942;28;20072;-71
2022/10/11 08:06:13;;;;;;;15.45;10.90;;;;;;;22.93;47.13;95508.22;5028170;28;20036;-71
2022/10/11 08:08:38;;;;;;;13.68;10.10;;;;;;;22.50;46.97;95437.38;5040436;28;20565;-69
2022/10/11 08:11:04;;;;;;;14.90;11.10;;;;;;;22.71;46.87;95474.03;5030524;28;20025;-70
2022/10/11 08:13:30;;;;;;;14.32;10.25;;;;;;;22.42;47.01;95447.28;5023895;28;20116;-70
2022/10/11 08:15:55;;;;;;;15.20;10.65;;;;;;;22.56;47.06;95470.78;5033954;28;20037;-70
2022/10/11 08:18:21;;;;;;;14.38;9.85;;;;;;;23.16;46.91;95558.75;5026194;28;20107;-65
2022/10/11 08:20:46;;;;;;;14.25;10.70;;;;;;;22.69;46.63;95492.81;5023514;28;20072;-71
2022/10/11 08:23:12;;;;;;;16.50;10.70;;;;;;;22.72;46.73;95497.28;5033245;28;20075;-68
2022/10/11 08:25:42;;;;;;;13.27;10.07;;;;;;;22.60;46.74;95479.44;5042169;28;20044;-67
2022/10/11 08:28:08;;;;;;;14.85;10.52;;;;;;;22.77;46.42;95504.72;5022755;28;20033;-67
2022/10/11 08:30:34;;;;;;;15.68;10.50;;;;;;;22.18;46.38;95406.13;5023323;28;20044;-68
2022/10/11 08:32:59;;;;;;;18.08;10.38;;;;;;;22.65;46.57;95481.44;5023533;28;20037;-68
2022/10/11 08:35:25;;;;;;;15.30;10.65;;;;;;;22.78;46.35;95506.19;5024669;28;20037;-70
2022/10/11 08:37:50;;;;;;;15.23;10.82;;;;;;;22.98;46.52;95537.44;5022471;28;20435;-68
2022/10/11 08:40:17;;;;;;;17.15;11.70;;;;;;;23.22;46.97;95562.25;5037654;28;20119;-69
2022/10/11 08:43:03;;;;;;;15.45;11.07;;;;;;;23.22;46.42;95562.25;5029911;28;20038;-71
2022/10/11 08:45:28;;;;;;;14.73;10.55;;;;;;;23.21;46.93;95566.19;5027250;28;20049;-73
2022/10/11 08:48:13;;;;;;;16.30;10.73;;;;;;;22.78;46.37;95500.75;5040368;28;20040;-73
2022/10/11 08:50:39;;;;;;;16.42;11.00;;;;;;;22.96;46.14;95520.88;5027952;28;20141;-74
2022/10/11 08:53:12;;;;;;;16.25;11.20;;;;;;;22.70;46.32;95486.16;5035396;28;20626;-68
2022/10/11 08:55:43;;;;;;;15.45;10.70;;;;;;;22.85;45.76;95500.28;5028200;28;20036;-72
2022/10/11 08:58:14;;;;;;;16.88;11.30;;;;;;;23.19;46.21;95568.66;5029894;28;20123;-70
2022/10/11 09:00:39;;;;;;;16.45;11.65;;;;;;;23.07;46.03;95539.94;5043225;28;20044;-70
2022/10/11 09:03:10;;;;;;;17.35;11.65;;;;;;;23.21;46.44;95570.91;5014751;28;20465;-70
2022/10/11 09:05:44;;;;;;;15.38;10.38;;;;;;;22.54;46.14;95444.06;5038255;28;20029;-72
2022/10/11 09:08:16;;;;;;;16.30;10.77;;;;;;;23.22;45.47;95548.59;5031475;28;20114;-70
2022/10/11 09:11:12;;;;;;;15.07;10.52;;;;;;;23.34;45.86;95558.28;5035308;28;20057;-71
2022/10/11 09:14:02;;;;;;;15.10;11.15;;;;;;;23.37;46.10;95556.56;5041271;28;20029;-72
2022/10/11 09:16:45;;;;;;;15.10;10.75;;;;;;;23.40;45.65;95556.28;5045350;28;20036;-71
2022/10/11 09:19:38;;;;;;;17.65;11.68;;;;;;;22.73;46.05;95460.66;5027133;28;20038;-71
2022/10/11 09:22:03;;;;;;;16.65;11.75;;;;;;;23.43;45.74;95547.13;5038843;28;20550;-71
2022/10/11 09:25:08;;;;;;;15.00;10.85;;;;;;;23.49;45.34;95547.88;5026788;28;20033;-69
2022/10/11 09:27:56;;;;;;;15.07;10.73;;;;;;;23.52;45.69;95542.16;5032567;28;20079;-70
2022/10/11 09:30:22;;;;;;;15.85;10.88;;;;;;;23.40;45.57;95518.13;5034616;28;20040;-71
2022/10/11 09:33:10;;;;;;;16.13;11.07;;;;;;;23.41;45.65;95514.91;5047818;28;20029;-70
2022/10/11 09:35:42;;;;;;;14.77;10.82;;;;;;;23.48;45.81;95503.50;5037709;28;20025;-71
2022/10/11 09:38:21;;;;;;;16.88;11.30;;;;;;;23.55;45.41;95502.25;5029358;28;20021;-71
2022/10/11 09:41:34;;;;;;;16.47;10.90;;;;;;;23.78;45.44;95545.38;5060138;28;20522;-71
2022/10/11 09:44:00;;;;;;;14.82;10.45;;;;;;;23.87;45.22;95539.66;5026198;28;20132;-70
2022/10/11 09:46:41;;;;;;;18.40;11.90;;;;;;;23.87;44.90;95540.41;5026123;28;20053;-69
2022/10/11 09:49:10;;;;;;;14.07;10.63;;;;;;;23.92;44.90;95519.81;5041767;28;20427;-71
2022/10/11 09:51:35;;;;;;;15.75;11.32;;;;;;;23.03;44.51;95386.91;5065683;28;20132;-71
2022/10/11 09:54:03;;;;;;;18.05;10.82;;;;;;;24.03;44.28;95534.13;5026583;28;20045;-70
2022/10/11 09:56:29;;;;;;;16.52;11.40;;;;;;;24.05;44.53;95523.50;5041271;28;20041;-70
2022/10/11 09:59:10;;;;;;;17.00;11.02;;;;;;;24.18;44.76;95526.41;5061060;28;20033;-69
2022/10/11 10:01:35;;;;;;;15.82;10.77;;;;;;;23.55;44.72;95425.94;5039209;28;20049;-69
2022/10/11 10:04:09;;;;;;;17.73;10.52;;;;;;;23.70;44.76;95454.41;5026593;28;20041;-70
2022/10/11 10:06:35;;;;;;;14.57;10.45;;;;;;;24.20;45.04;95518.47;5029136;28;20053;-70
2022/10/11 10:09:19;;;;;;;16.13;10.98;;;;;;;24.27;45.02;95525.38;5042449;28;20037;-69
2022/10/11 10:11:45;;;;;;;15.73;11.20;;;;;;;24.31;44.68;95523.88;5044136;28;20555;-67
2022/10/11 10:14:27;;;;;;;17.15;11.13;;;;;;;23.66;44.40;95423.94;5042844;28;20055;-66
2022/10/11 10:17:13;;;;;;;14.93;10.98;;;;;;;24.07;44.44;95477.34;5025434;28;20064;-66
2022/10/11 10:19:41;;;;;;;16.25;10.70;;;;;;;23.51;44.70;95398.94;5044199;28;20128;-70
2022/10/11 10:22:14;;;;;;;14.65;10.65;;;;;;;23.81;44.37;95442.72;5041979;28;20212;-71
2022/10/11 10:24:39;;;;;;;13.98;10.48;;;;;;;23.57;45.14;95412.53;5019358;28;20095;-68
2022/10/11 10:27:28;;;;;;;14.70;10.80;;;;;;;24.16;44.71;95498.88;5024355;28;20037;-67
2022/10/11 10:30:00;;;;;;;15.95;10.82;;;;;;;24.25;44.78;95498.59;5041576;28;20920;-69
2022/10/11 10:32:33;;;;;;;15.05;11.00;;;;;;;24.24;44.89;95502.56;5025947;28;20087;-68
2022/10/11 10:35:22;;;;;;;14.60;10.82;;;;;;;24.25;44.51;95498.59;5043648;28;20110;-70
2022/10/11 10:38:15;;;;;;;14.30;10.55;;;;;;;24.27;44.80;95490.63;5030013;28;20523;-70
2022/10/11 10:40:42;;;;;;;15.45;11.60;;;;;;;23.14;44.59;95321.50;5017346;28;20413;-70
2022/10/11 10:43:14;;;;;;;16.52;10.95;;;;;;;24.10;44.85;95454.50;5061907;28;20063;-69
2022/10/11 10:45:58;;;;;;;16.55;10.35;;;;;;;24.35;44.63;95492.38;5035692;28;20741;-69
2022/10/11 10:48:47;;;;;;;14.65;10.30;;;;;;;24.37;44.16;95483.69;5039272;28;20111;-70
2022/10/11 10:51:24;;;;;;;16.48;10.85;;;;;;;24.38;44.58;95485.19;5036902;28;20157;-73
2022/10/11 10:53:57;;;;;;;14.75;10.32;;;;;;;24.40;44.38;95494.31;5038323;28;20084;-62
2022/10/11 10:56:36;;;;;;;16.48;10.40;;;;;;;24.42;44.63;95474.72;5043692;28;20087;-68
2022/10/11 10:59:37;;;;;;;13.50;10.20;;;;;;;24.43;44.09;95476.19;5045971;28;20035;-68
2022/10/11 11:02:46;;;;;;;14.63;10.40;;;;;;;24.32;44.56;95465.31;5032525;28;20107;-68
2022/10/11 11:05:30;;;;;;;16.70;10.67;;;;;;;24.38;44.11;95468.78;5025940;28;20056;-68
2022/10/11 11:08:08;;;;;;;15.27;10.77;;;;;;;24.37;44.50;95465.31;5023636;28;20033;-69
2022/10/11 11:10:41;;;;;;;15.73;10.77;;;;;;;24.36;44.49;95465.81;5025177;28;20116;-67
2022/10/11 11:13:24;;;;;;;14.60;10.50;;;;;;;24.33;44.28;95464.09;5023107;28;20049;-69
2022/10/11 11:16:04;;;;;;;13.98;10.13;;;;;;;24.31;44.28;95458.38;5027984;28;20122;-69
2022/10/11 11:18:38;;;;;;;13.75;10.45;;;;;;;23.86;44.54;95401.06;5024932;28;20435;-70
2022/10/11 11:21:07;;;;;;;15.13;10.82;;;;;;;23.59;44.54;95361.00;5041553;28;20041;-69
2022/10/11 11:24:06;;;;;;;13.23;10.05;;;;;;;24.26;44.31;95456.41;5031608;28;20406;-69
2022/10/11 11:26:49;;;;;;;14.18;10.82;;;;;;;24.20;44.63;95452.97;5024825;28;20049;-65
2022/10/11 11:29:33;;;;;;;14.57;10.18;;;;;;;24.20;44.58;95458.44;5012310;28;20028;-65
2022/10/11 11:32:13;;;;;;;13.85;10.02;;;;;;;23.99;44.92;95430.00;5023928;28;20040;-71
2022/10/11 11:34:45;;;;;;;;;;;;;;;24.17;44.52;95448.53;5048128;28;20513;-68
2022/10/11 11:37:19;;;;;;;14.73;10.13;;;;;;;24.16;44.67;95447.03;5057045;28;20454;-68
2022/10/11 11:39:48;;;;;;;15.82;10.95;;;;;;;23.62;44.41;95376.34;5028374;28;20539;-66